createdAt,value
2017-10-15T00:00:10.616Z,39.80
2017-10-15T00:01:13.572Z,34.40
2017-10-15T00:02:18.756Z,42.95
2017-10-15T00:03:21.723Z,35.33
2017-10-15T00:04:24.579Z,41.63
2017-10-15T00:05:27.537Z,40.30
2017-10-15T00:06:31.403Z,41.85
2017-10-15T00:07:34.132Z,47.97
2017-10-15T00:08:37.324Z,48.75
2017-10-15T00:09:39.987Z,49.95
2017-10-15T00:10:43.310Z,39.50
2017-10-15T00:11:46.938Z,46.30
2017-10-15T00:12:50.006Z,49.65
2017-10-15T00:13:53.431Z,44.03
2017-10-15T00:14:56.212Z,44.60
2017-10-15T00:16:00.378Z,38.15
2017-10-15T00:17:04.358Z,50.55
2017-10-15T00:18:08.325Z,38.83
2017-10-15T00:19:11.872Z,46.33
2017-10-15T00:20:14.809Z,46.03
2017-10-15T00:21:17.783Z,50.30
2017-10-15T00:22:20.860Z,42.30
2017-10-15T00:23:25.009Z,32.13
2017-10-15T00:24:28.335Z,41.03
2017-10-15T00:25:31.876Z,35.42
2017-10-15T00:26:35.415Z,41.80
2017-10-15T00:27:38.701Z,44.10
2017-10-15T00:28:41.490Z,46.63
2017-10-15T00:29:44.580Z,41.25
2017-10-15T00:30:49.861Z,39.20
2017-10-15T00:32:01.465Z,41.75
2017-10-15T00:35:58.753Z,28.40
2017-10-15T00:37:01.719Z,38.60
2017-10-15T00:38:04.689Z,39.65
2017-10-15T00:39:08.283Z,31.52
2017-10-15T00:40:10.968Z,34.80
2017-10-15T00:41:14.346Z,29.60
2017-10-15T00:42:17.244Z,31.65
2017-10-15T00:43:20.308Z,31.87
2017-10-15T00:44:23.181Z,30.67
2017-10-15T00:45:26.427Z,33.70
2017-10-15T00:46:29.446Z,33.20
2017-10-15T00:47:32.737Z,40.90
2017-10-15T00:48:36.343Z,44.15
2017-10-15T00:49:40.645Z,38.80
2017-10-15T00:50:43.206Z,46.05
2017-10-15T00:51:46.292Z,43.72
2017-10-15T00:52:48.835Z,29.15
2017-10-15T00:53:51.658Z,36.22
2017-10-15T00:54:54.152Z,33.97
2017-10-15T00:55:57.739Z,47.55
2017-10-15T00:57:01.041Z,44.65
2017-10-15T00:58:03.873Z,38.95
2017-10-15T00:59:06.479Z,29.58
2017-10-15T01:00:09.192Z,36.83
2017-10-15T01:01:11.720Z,31.77
2017-10-15T01:02:14.735Z,28.87
2017-10-15T01:03:17.238Z,39.90
2017-10-15T01:04:21.749Z,27.92
2017-10-15T01:05:25.010Z,31.27
2017-10-15T01:06:27.701Z,35.67
2017-10-15T01:07:31.024Z,24.10
2017-10-15T01:08:34.282Z,20.95
2017-10-15T01:09:36.802Z,26.70
2017-10-15T01:10:39.597Z,31.62
2017-10-15T01:11:42.092Z,27.73
2017-10-15T01:12:44.636Z,35.60
2017-10-15T01:13:48.050Z,32.47
2017-10-15T01:14:50.953Z,26.55
2017-10-15T01:15:53.490Z,28.48
2017-10-15T01:16:56.226Z,32.72
2017-10-15T01:17:58.943Z,37.58
2017-10-15T01:19:01.587Z,37.50
2017-10-15T01:20:04.837Z,40.88
2017-10-15T01:21:08.475Z,32.20
2017-10-15T01:22:11.041Z,37.75
2017-10-15T01:23:13.868Z,40.50
2017-10-15T01:24:20.627Z,29.20
2017-10-15T01:25:24.255Z,33.10
2017-10-15T01:26:27.540Z,41.03
2017-10-15T01:27:30.940Z,46.65
2017-10-15T01:28:41.604Z,38.60
2017-10-15T01:29:44.209Z,35.42
2017-10-15T01:30:46.725Z,29.87
2017-10-15T01:31:49.272Z,34.40
2017-10-15T01:32:51.791Z,32.63
2017-10-15T01:33:54.606Z,33.30
2017-10-15T01:34:57.905Z,31.27
2017-10-15T01:36:06.841Z,23.55
2017-10-15T01:37:09.346Z,25.30
2017-10-15T01:38:12.074Z,34.92
2017-10-15T01:39:14.587Z,32.33
2017-10-15T01:40:22.726Z,36.65
2017-10-15T01:41:26.235Z,34.55
2017-10-15T01:42:29.057Z,30.80
2017-10-15T01:43:31.575Z,38.42
2017-10-15T01:44:34.261Z,49.22
2017-10-15T01:45:36.867Z,38.42
2017-10-15T01:46:40.493Z,33.28
2017-10-15T01:47:43.070Z,39.92
2017-10-15T01:48:46.827Z,30.98
2017-10-15T01:49:50.119Z,34.08
2017-10-15T01:50:54.710Z,38.13
2017-10-15T01:51:57.222Z,36.35
2017-10-15T01:52:59.832Z,31.02
2017-10-15T01:54:02.398Z,39.78
2017-10-15T01:55:05.195Z,29.50
2017-10-15T01:56:07.700Z,32.88
2017-10-15T01:57:10.619Z,27.42
2017-10-15T01:58:13.125Z,29.25
2017-10-15T01:59:22.291Z,39.47
2017-10-15T02:00:24.817Z,29.85
2017-10-15T02:01:28.304Z,31.80
2017-10-15T02:02:31.620Z,25.83
2017-10-15T02:03:34.217Z,31.75
2017-10-15T02:04:36.751Z,29.90
2017-10-15T02:05:39.592Z,39.05
2017-10-15T02:06:42.888Z,29.02
2017-10-15T02:07:50.649Z,26.98
2017-10-15T02:08:53.190Z,33.15
2017-10-15T02:09:55.788Z,41.75
2017-10-15T02:10:58.814Z,49.10
2017-10-15T02:12:01.478Z,39.78
2017-10-15T02:13:04.068Z,40.53
2017-10-15T02:14:06.856Z,37.45
2017-10-15T02:15:09.352Z,37.20
2017-10-15T02:16:14.200Z,33.33
2017-10-15T02:17:16.713Z,33.38
2017-10-15T02:18:19.270Z,34.75
2017-10-15T02:19:21.760Z,32.10
2017-10-15T02:20:25.595Z,38.28
2017-10-15T02:21:28.161Z,31.98
2017-10-15T02:22:30.933Z,34.33
2017-10-15T02:23:33.415Z,43.83
2017-10-15T02:24:36.220Z,39.70
2017-10-15T02:25:38.700Z,34.60
2017-10-15T02:26:41.241Z,35.25
2017-10-15T02:27:43.873Z,41.03
2017-10-15T02:28:46.608Z,56.25
2017-10-15T02:29:49.221Z,59.35
2017-10-15T02:30:51.918Z,60.47
2017-10-15T02:31:54.410Z,38.88
2017-10-15T02:32:57.001Z,47.03
2017-10-15T02:34:00.271Z,42.97
2017-10-15T02:35:03.956Z,34.35
2017-10-15T02:36:06.437Z,35.78
2017-10-15T02:37:09.798Z,35.33
2017-10-15T02:38:12.284Z,32.60
2017-10-15T02:39:15.751Z,40.70
2017-10-15T02:40:18.279Z,36.45
2017-10-15T02:41:21.090Z,41.40
2017-10-15T02:42:23.598Z,41.83
2017-10-15T02:43:26.572Z,42.42
2017-10-15T02:44:29.146Z,45.40
2017-10-15T02:45:35.192Z,41.78
2017-10-15T02:46:37.678Z,46.80
2017-10-15T02:47:40.537Z,43.47
2017-10-15T02:48:43.061Z,44.92
2017-10-15T02:49:46.200Z,56.25
2017-10-15T02:50:49.346Z,48.50
2017-10-15T02:51:54.971Z,54.58
2017-10-15T02:52:59.100Z,49.25
2017-10-15T02:54:01.715Z,48.22
2017-10-15T02:55:04.263Z,36.20
2017-10-15T02:56:07.314Z,29.63
2017-10-15T02:57:12.632Z,39.40
2017-10-15T02:58:17.056Z,37.33
2017-10-15T02:59:19.555Z,42.83
2017-10-15T03:00:22.352Z,44.03
2017-10-15T03:01:24.963Z,55.45
2017-10-15T03:02:27.738Z,38.22
2017-10-15T03:03:30.303Z,41.15
2017-10-15T03:04:33.280Z,44.90
2017-10-15T03:05:35.778Z,47.25
2017-10-15T03:06:38.448Z,35.65
2017-10-15T03:07:40.967Z,32.42
2017-10-15T03:08:43.755Z,32.20
2017-10-15T03:09:46.240Z,27.08
2017-10-15T03:10:49.029Z,26.30
2017-10-15T03:11:51.511Z,28.87
2017-10-15T03:12:54.230Z,33.03
2017-10-15T03:13:56.797Z,27.73
2017-10-15T03:14:59.419Z,23.30
2017-10-15T03:16:01.930Z,30.80
2017-10-15T03:17:04.756Z,35.67
2017-10-15T03:18:07.275Z,34.10
2017-10-15T03:19:10.111Z,36.55
2017-10-15T03:20:13.379Z,34.50
2017-10-15T03:21:17.933Z,34.30
2017-10-15T03:22:21.119Z,33.45
2017-10-15T03:23:23.870Z,40.17
2017-10-15T03:24:26.398Z,41.08
2017-10-15T03:25:29.739Z,33.97
2017-10-15T03:26:32.309Z,42.47
2017-10-15T03:27:35.181Z,51.63
2017-10-15T03:28:37.754Z,46.15
2017-10-15T03:29:40.492Z,49.70
2017-10-15T03:30:43.806Z,42.45
2017-10-15T03:31:46.408Z,48.87
2017-10-15T03:32:48.908Z,47.42
2017-10-15T03:33:52.399Z,48.85
2017-10-15T03:34:55.662Z,44.20
2017-10-15T03:35:58.325Z,44.25
2017-10-15T03:37:00.807Z,50.30
2017-10-15T03:38:03.357Z,44.33
2017-10-15T03:39:05.877Z,44.30
2017-10-15T03:40:08.706Z,40.35
2017-10-15T03:41:11.212Z,26.20
2017-10-15T03:42:14.083Z,38.85
2017-10-15T03:43:16.891Z,35.95
2017-10-15T03:44:19.709Z,35.22
2017-10-15T03:45:22.410Z,41.70
2017-10-15T03:46:25.030Z,41.40
2017-10-15T03:47:27.525Z,51.63
2017-10-15T03:48:33.136Z,44.10
2017-10-15T03:49:35.642Z,61.45
2017-10-15T03:50:38.475Z,51.20
2017-10-15T03:51:40.982Z,48.92
2017-10-15T03:52:43.825Z,52.70
2017-10-15T03:53:47.095Z,48.60
2017-10-15T03:54:50.939Z,42.20
2017-10-15T03:55:53.485Z,39.83
2017-10-15T03:56:56.925Z,43.72
2017-10-15T03:57:59.418Z,49.88
2017-10-15T03:59:01.983Z,48.00
2017-10-15T04:00:04.489Z,49.38
2017-10-15T04:01:07.360Z,43.75
2017-10-15T04:02:09.842Z,39.58
2017-10-15T04:03:12.654Z,40.38
2017-10-15T04:04:15.166Z,43.55
2017-10-15T04:05:18.139Z,35.08
2017-10-15T04:06:21.406Z,35.33
2017-10-15T04:07:24.848Z,48.63
2017-10-15T04:08:27.410Z,42.80
2017-10-15T04:09:30.184Z,49.03
2017-10-15T04:10:32.728Z,36.30
2017-10-15T04:11:35.694Z,40.95
2017-10-15T04:12:38.246Z,40.78
2017-10-15T04:13:41.791Z,39.92
2017-10-15T04:14:44.430Z,55.78
2017-10-15T04:15:47.124Z,41.53
2017-10-15T04:16:49.661Z,50.50
2017-10-15T04:17:52.475Z,57.78
2017-10-15T04:18:54.976Z,51.10
2017-10-15T04:19:58.440Z,61.63
2017-10-15T04:21:00.924Z,59.95
2017-10-15T04:22:04.393Z,66.18
2017-10-15T04:23:06.880Z,57.78
2017-10-15T04:24:10.346Z,60.95
2017-10-15T04:25:12.852Z,46.50
2017-10-15T04:26:15.728Z,50.60
2017-10-15T04:27:18.498Z,51.25
2017-10-15T04:28:22.250Z,53.17
2017-10-15T04:29:24.889Z,58.10
2017-10-15T04:30:27.587Z,61.75
2017-10-15T04:31:30.103Z,57.50
2017-10-15T04:32:32.909Z,54.63
2017-10-15T04:33:35.412Z,43.50
2017-10-15T04:34:38.909Z,50.40
2017-10-15T04:35:42.161Z,43.90
2017-10-15T04:36:44.883Z,39.90
2017-10-15T04:37:47.459Z,39.58
2017-10-15T04:38:51.112Z,35.17
2017-10-15T04:39:54.425Z,36.63
2017-10-15T04:40:57.082Z,33.97
2017-10-15T04:41:59.584Z,34.83
2017-10-15T04:43:02.384Z,33.20
2017-10-15T04:44:04.987Z,33.50
2017-10-15T04:45:07.756Z,38.40
2017-10-15T04:46:11.062Z,35.05
2017-10-15T04:47:13.830Z,35.35
2017-10-15T04:48:16.380Z,37.47
2017-10-15T04:49:20.116Z,38.38
2017-10-15T04:50:22.725Z,39.13
2017-10-15T04:51:27.122Z,35.65
2017-10-15T04:52:30.356Z,40.58
2017-10-15T04:53:34.043Z,34.20
2017-10-15T04:54:38.934Z,38.22
2017-10-15T04:57:12.774Z,49.00
2017-10-15T04:58:15.544Z,46.85
2017-10-15T04:59:18.729Z,46.95
2017-10-15T05:00:21.347Z,45.78
2017-10-15T05:01:23.858Z,42.70
2017-10-15T05:02:26.667Z,46.95
2017-10-15T05:03:29.164Z,33.80
2017-10-15T05:04:32.653Z,37.95
2017-10-15T05:05:35.134Z,45.55
2017-10-15T05:06:38.593Z,44.03
2017-10-15T05:07:41.124Z,39.83
2017-10-15T05:08:44.840Z,46.88
2017-10-15T05:09:47.936Z,45.95
2017-10-15T05:10:54.152Z,27.70
2017-10-15T05:11:57.603Z,40.90
2017-10-15T05:13:00.931Z,38.83
2017-10-15T05:14:03.735Z,44.20
2017-10-15T05:15:06.346Z,51.03
2017-10-15T05:16:09.183Z,35.58
2017-10-15T05:17:12.463Z,37.47
2017-10-15T05:18:16.547Z,50.38
2017-10-15T05:19:19.087Z,46.80
2017-10-15T05:20:21.943Z,49.60
2017-10-15T05:21:24.468Z,47.17
2017-10-15T05:22:27.390Z,43.13
2017-10-15T05:23:29.965Z,29.80
2017-10-15T05:24:32.570Z,47.03
2017-10-15T05:25:35.091Z,55.65
2017-10-15T05:26:37.946Z,35.97
2017-10-15T05:27:41.200Z,42.15
2017-10-15T05:28:44.838Z,35.63
2017-10-15T05:29:47.738Z,32.75
2017-10-15T05:30:51.888Z,33.22
2017-10-15T05:31:55.171Z,38.33
2017-10-15T05:32:58.535Z,36.95
2017-10-15T05:34:01.038Z,35.92
2017-10-15T05:35:04.500Z,29.80
2017-10-15T05:36:06.988Z,31.40
2017-10-15T05:37:11.114Z,45.42
2017-10-15T05:38:13.604Z,26.42
2017-10-15T05:39:16.428Z,34.85
2017-10-15T05:40:18.942Z,45.10
2017-10-15T05:41:22.402Z,35.22
2017-10-15T05:42:24.934Z,32.50
2017-10-15T05:43:27.677Z,30.77
2017-10-15T05:44:30.165Z,29.83
2017-10-15T05:45:33.265Z,31.17
2017-10-15T05:46:36.570Z,32.45
2017-10-15T05:47:39.456Z,28.02
2017-10-15T05:48:41.972Z,37.53
2017-10-15T05:49:44.639Z,24.42
2017-10-15T05:50:47.161Z,34.25
2017-10-15T05:51:49.978Z,26.90
2017-10-15T05:52:52.491Z,31.08
2017-10-15T05:53:55.276Z,29.27
2017-10-15T05:54:57.790Z,27.48
2017-10-15T05:56:00.393Z,26.80
2017-10-15T05:57:02.867Z,21.40
2017-10-15T05:58:09.409Z,27.08
2017-10-15T05:59:11.977Z,24.63
2017-10-15T06:00:16.646Z,25.05
2017-10-15T06:01:19.261Z,12.40
2017-10-15T06:02:22.135Z,18.35
2017-10-15T06:03:24.640Z,20.77
2017-10-15T06:04:28.496Z,19.30
2017-10-15T06:05:31.064Z,17.45
2017-10-15T06:06:35.622Z,19.15
2017-10-15T06:07:38.115Z,24.10
2017-10-15T06:08:41.620Z,15.80
2017-10-15T06:09:44.917Z,25.17
2017-10-15T06:10:47.586Z,20.77
2017-10-15T06:11:50.073Z,16.98
2017-10-15T06:12:53.788Z,23.25
2017-10-15T06:13:56.284Z,20.12
2017-10-15T06:15:01.615Z,22.98
2017-10-15T06:16:04.932Z,14.45
2017-10-15T06:17:07.561Z,22.55
2017-10-15T06:18:10.881Z,18.15
2017-10-15T06:19:15.637Z,20.05
2017-10-15T06:20:18.139Z,20.90
2017-10-15T06:21:21.875Z,25.02
2017-10-15T06:22:24.533Z,16.37
2017-10-15T06:23:27.260Z,19.55
2017-10-15T06:24:29.743Z,16.95
2017-10-15T06:25:33.192Z,17.75
2017-10-15T06:26:35.676Z,18.45
2017-10-15T06:27:39.180Z,19.02
2017-10-15T06:28:42.590Z,15.63
2017-10-15T06:29:50.995Z,17.52
2017-10-15T06:30:53.600Z,15.35
2017-10-15T06:31:58.463Z,22.02
2017-10-15T06:33:01.703Z,16.65
2017-10-15T06:34:04.355Z,26.58
2017-10-15T06:35:07.002Z,16.80
2017-10-15T06:36:10.370Z,15.90
2017-10-15T06:37:13.634Z,19.52
2017-10-15T06:38:17.230Z,24.33
2017-10-15T06:39:19.933Z,16.92
2017-10-15T06:40:22.603Z,17.85
2017-10-15T06:41:25.118Z,13.70
2017-10-15T06:42:28.856Z,17.27
2017-10-15T06:43:31.392Z,16.50
2017-10-15T06:44:34.341Z,17.33
2017-10-15T06:45:36.875Z,20.42
2017-10-15T06:46:39.480Z,15.48
2017-10-15T06:47:42.115Z,14.75
2017-10-15T06:48:45.442Z,15.02
2017-10-15T06:49:47.961Z,19.02
2017-10-15T06:50:54.172Z,19.95
2017-10-15T06:51:56.784Z,23.75
2017-10-15T06:53:04.889Z,19.77
2017-10-15T06:54:07.414Z,17.77
2017-10-15T06:55:15.153Z,17.75
2017-10-15T06:56:17.712Z,13.05
2017-10-15T06:57:20.994Z,15.27
2017-10-15T06:58:23.488Z,18.73
2017-10-15T06:59:26.259Z,16.80
2017-10-15T07:00:28.787Z,17.62
2017-10-15T07:01:33.615Z,16.05
2017-10-15T07:02:36.181Z,16.15
2017-10-15T07:03:39.158Z,13.55
2017-10-15T07:04:41.666Z,18.83
2017-10-15T07:05:44.459Z,14.10
2017-10-15T07:06:47.770Z,12.85
2017-10-15T07:07:50.399Z,14.50
2017-10-15T07:08:52.893Z,16.35
2017-10-15T07:09:59.901Z,14.15
2017-10-15T07:11:02.405Z,9.75
2017-10-15T07:12:05.854Z,16.17
2017-10-15T07:13:08.373Z,11.15
2017-10-15T07:14:11.630Z,10.85
2017-10-15T07:15:16.089Z,12.45
2017-10-15T07:16:19.167Z,16.27
2017-10-15T07:17:21.944Z,7.53
2017-10-15T07:18:24.615Z,9.88
2017-10-15T07:19:27.839Z,11.52
2017-10-15T07:20:30.360Z,8.75
2017-10-15T07:21:33.133Z,11.88
2017-10-15T07:22:35.699Z,9.60
2017-10-15T07:23:38.465Z,9.68
2017-10-15T07:24:40.953Z,7.28
2017-10-15T07:25:45.614Z,7.47
2017-10-15T07:26:48.918Z,11.15
2017-10-15T07:28:00.890Z,6.90
2017-10-15T07:29:03.427Z,8.57
2017-10-15T07:30:07.033Z,7.40
2017-10-15T07:31:09.569Z,6.90
2017-10-15T07:32:12.388Z,8.35
2017-10-15T07:33:14.867Z,6.97
2017-10-15T07:34:18.696Z,7.03
2017-10-15T07:35:22.073Z,6.43
2017-10-15T07:36:24.891Z,9.40
2017-10-15T07:37:28.802Z,7.70
2017-10-15T07:38:32.391Z,8.47
2017-10-15T07:39:34.931Z,6.43
2017-10-15T07:40:38.748Z,7.37
2017-10-15T07:41:51.464Z,9.77
2017-10-15T07:42:53.940Z,6.20
2017-10-15T07:43:57.409Z,8.70
2017-10-15T07:44:59.922Z,10.23
2017-10-15T07:46:03.818Z,7.20
2017-10-15T07:47:06.499Z,8.03
2017-10-15T07:49:32.059Z,9.50
2017-10-15T07:50:34.818Z,10.17
2017-10-15T07:51:43.359Z,7.83
2017-10-15T07:52:45.881Z,9.67
2017-10-15T07:53:51.907Z,7.17
2017-10-15T07:54:54.424Z,6.83
2017-10-15T07:55:58.769Z,9.00
2017-10-15T07:57:10.859Z,11.50
2017-10-15T07:58:13.467Z,10.80
2017-10-15T07:59:16.313Z,7.57
2017-10-15T08:00:35.932Z,6.00
2017-10-15T08:01:39.012Z,7.27
2017-10-15T08:02:41.633Z,9.10
2017-10-15T08:05:06.123Z,7.30
2017-10-15T08:06:13.616Z,5.87
2017-10-15T08:07:16.167Z,10.83
2017-10-15T08:08:18.643Z,8.73
2017-10-15T08:09:21.306Z,6.53
2017-10-15T08:10:23.833Z,7.30
2017-10-15T08:11:30.827Z,7.67
2017-10-15T08:12:33.513Z,9.03
2017-10-15T08:13:36.211Z,7.57
2017-10-15T08:14:39.663Z,11.00
2017-10-15T08:15:42.215Z,9.43
2017-10-15T08:16:45.457Z,14.63
2017-10-15T08:17:47.941Z,6.00
2017-10-15T08:18:51.226Z,9.93
2017-10-15T08:19:56.582Z,11.57
2017-10-15T08:20:59.117Z,9.97
2017-10-15T08:22:06.545Z,7.83
2017-10-15T08:23:09.052Z,10.90
2017-10-15T08:24:11.764Z,11.07
2017-10-15T08:25:14.280Z,8.10
2017-10-15T08:26:17.846Z,9.00
2017-10-15T08:27:20.395Z,6.47
2017-10-15T08:28:22.988Z,6.73
2017-10-15T08:29:25.657Z,11.83
2017-10-15T08:30:28.163Z,8.60
2017-10-15T08:31:32.321Z,7.73
2017-10-15T08:32:37.071Z,6.80
2017-10-15T08:33:39.569Z,7.27
2017-10-15T08:34:43.116Z,7.77
2017-10-15T08:35:46.458Z,5.27
2017-10-15T08:36:50.157Z,8.43
2017-10-15T08:37:53.460Z,14.90
2017-10-15T08:38:56.982Z,8.30
2017-10-15T08:39:59.509Z,5.27
2017-10-15T08:41:02.030Z,9.33
2017-10-15T08:42:05.306Z,6.13
2017-10-15T08:43:07.837Z,7.27
2017-10-15T08:44:10.334Z,7.77
2017-10-15T08:45:13.612Z,11.90
2017-10-15T08:46:17.213Z,6.87
2017-10-15T08:47:21.961Z,8.70
2017-10-15T08:48:24.495Z,7.23
2017-10-15T08:49:28.196Z,11.37
2017-10-15T08:50:31.474Z,11.50
2017-10-15T08:51:34.837Z,10.80
2017-10-15T08:52:37.358Z,11.80
2017-10-15T08:53:40.099Z,7.80
2017-10-15T08:54:43.402Z,7.73
2017-10-15T08:55:46.282Z,10.10
2017-10-15T08:56:48.980Z,13.90
2017-10-15T08:57:51.654Z,19.43
2017-10-15T09:00:11.248Z,13.73
2017-10-15T09:01:16.269Z,13.30
2017-10-15T09:02:19.890Z,8.73
2017-10-15T09:03:28.119Z,9.70
2017-10-15T09:04:31.270Z,12.17
2017-10-15T09:05:34.556Z,9.20
2017-10-15T09:06:37.832Z,7.17
2017-10-15T09:07:41.321Z,8.13
2017-10-15T09:08:45.525Z,9.90
2017-10-15T09:09:50.056Z,9.40
2017-10-15T09:10:52.670Z,11.03
2017-10-15T09:11:55.203Z,8.23
2017-10-15T09:12:57.981Z,15.90
2017-10-15T09:14:00.470Z,9.47
2017-10-15T09:15:03.012Z,7.67
2017-10-15T09:16:05.838Z,6.50
2017-10-15T09:17:08.357Z,11.50
2017-10-15T09:18:12.510Z,12.50
2017-10-15T09:19:15.812Z,15.20
2017-10-15T09:20:19.250Z,10.47
2017-10-15T09:21:21.780Z,13.60
2017-10-15T09:22:25.131Z,7.53
2017-10-15T09:23:28.412Z,9.80
2017-10-15T09:24:31.703Z,8.13
2017-10-15T09:25:34.978Z,7.30
2017-10-15T09:26:38.349Z,8.63
2017-10-15T09:27:40.882Z,6.60
2017-10-15T09:28:43.720Z,10.00
2017-10-15T09:29:46.993Z,13.47
2017-10-15T09:30:50.252Z,11.63
2017-10-15T09:31:52.757Z,11.75
2017-10-15T09:32:56.201Z,13.33
2017-10-15T09:34:06.007Z,12.13
2017-10-15T09:35:08.543Z,9.77
2017-10-15T09:36:11.857Z,9.20
2017-10-15T09:37:14.432Z,10.70
2017-10-15T09:38:19.083Z,9.00
2017-10-15T09:39:21.711Z,6.90
2017-10-15T09:40:24.247Z,12.30
2017-10-15T09:41:27.537Z,7.83
2017-10-15T09:42:31.027Z,12.37
2017-10-15T09:43:33.540Z,11.02
2017-10-15T09:44:36.124Z,10.40
2017-10-15T09:45:38.752Z,7.60
2017-10-15T09:46:41.484Z,10.90
2017-10-15T09:47:44.806Z,12.73
2017-10-15T09:48:47.372Z,8.32
2017-10-15T09:49:49.939Z,8.98
2017-10-15T09:50:52.440Z,11.23
2017-10-15T09:51:59.187Z,14.07
2017-10-15T09:53:01.977Z,9.40
2017-10-15T09:54:04.504Z,12.30
2017-10-15T09:55:07.508Z,9.18
2017-10-15T09:56:10.353Z,8.45
2017-10-15T09:57:13.498Z,10.20
2017-10-15T09:58:16.777Z,8.20
2017-10-15T09:59:20.190Z,7.53
2017-10-15T10:00:22.744Z,10.75
2017-10-15T10:01:27.420Z,9.18
2017-10-15T10:02:29.991Z,11.82
2017-10-15T10:03:32.546Z,17.98
2017-10-15T10:04:35.090Z,11.80
2017-10-15T10:05:37.971Z,8.55
2017-10-15T10:06:40.497Z,10.68
2017-10-15T10:07:43.944Z,8.85
2017-10-15T10:08:46.587Z,10.00
2017-10-15T10:09:49.157Z,10.57
2017-10-15T10:10:51.653Z,9.27
2017-10-15T10:11:54.351Z,9.35
2017-10-15T10:12:57.631Z,12.55
2017-10-15T10:14:02.139Z,8.45
2017-10-15T10:15:05.439Z,9.43
2017-10-15T10:16:08.719Z,8.25
2017-10-15T10:17:13.503Z,11.73
2017-10-15T10:18:15.987Z,5.85
2017-10-15T10:19:18.483Z,13.65
2017-10-15T10:20:20.996Z,11.55
2017-10-15T10:21:25.281Z,8.88
2017-10-15T10:22:27.991Z,9.45
2017-10-15T10:23:30.679Z,11.85
2017-10-15T10:24:34.395Z,7.03
2017-10-15T10:25:37.946Z,9.48
2017-10-15T10:26:40.487Z,12.32
2017-10-15T10:27:43.010Z,10.18
2017-10-15T10:28:45.506Z,7.68
2017-10-15T10:29:49.052Z,12.27
2017-10-15T10:30:52.470Z,6.53
2017-10-15T10:31:55.344Z,13.10
2017-10-15T10:32:57.852Z,9.10
2017-10-15T10:34:00.428Z,8.57
2017-10-15T10:35:03.712Z,7.78
2017-10-15T10:36:07.002Z,8.90
2017-10-15T10:37:09.532Z,9.45
2017-10-15T10:38:12.208Z,8.87
2017-10-15T10:39:14.729Z,8.82
2017-10-15T10:40:17.448Z,6.97
2017-10-15T10:41:19.956Z,13.25
2017-10-15T10:42:23.231Z,6.82
2017-10-15T10:43:26.653Z,8.88
2017-10-15T10:44:29.446Z,8.57
2017-10-15T10:45:32.857Z,6.07
2017-10-15T10:46:36.357Z,9.90
2017-10-15T10:47:39.894Z,10.60
2017-10-15T10:48:42.446Z,10.35
2017-10-15T10:49:46.255Z,11.93
2017-10-15T10:50:48.766Z,8.48
2017-10-15T10:51:51.286Z,9.40
2017-10-15T10:52:53.793Z,12.32
2017-10-15T10:53:56.395Z,8.83
2017-10-15T10:54:59.708Z,10.82
2017-10-15T10:56:02.272Z,7.12
2017-10-15T10:57:13.868Z,7.63
2017-10-15T10:58:16.513Z,6.57
2017-10-15T10:59:19.249Z,8.47
2017-10-15T11:00:22.747Z,9.02
2017-10-15T11:01:26.827Z,7.03
2017-10-15T11:02:29.310Z,9.18
2017-10-15T11:03:32.551Z,7.93
2017-10-15T11:04:35.054Z,7.18
2017-10-15T11:05:39.022Z,6.80
2017-10-15T11:06:41.515Z,10.15
2017-10-15T11:07:45.004Z,8.88
2017-10-15T11:08:48.271Z,8.55
2017-10-15T11:09:50.794Z,11.30
2017-10-15T11:10:53.364Z,8.50
2017-10-15T11:11:55.981Z,5.87
2017-10-15T11:12:58.518Z,6.78
2017-10-15T11:14:01.150Z,7.20
2017-10-15T11:15:04.452Z,6.18
2017-10-15T11:16:07.711Z,7.07
2017-10-15T11:17:10.667Z,8.88
2017-10-15T11:18:13.956Z,5.40
2017-10-15T11:19:17.340Z,6.10
2017-10-15T11:20:20.636Z,7.00
2017-10-15T11:21:23.160Z,10.07
2017-10-15T11:22:25.712Z,5.50
2017-10-15T11:23:30.406Z,8.23
2017-10-15T11:24:32.900Z,5.60
2017-10-15T11:25:35.579Z,8.93
2017-10-15T11:26:38.094Z,6.53
2017-10-15T11:27:40.610Z,13.33
2017-10-15T11:28:43.128Z,8.57
2017-10-15T11:29:46.714Z,7.30
2017-10-15T11:30:50.016Z,5.27
2017-10-15T11:31:52.821Z,8.40
2017-10-15T11:32:56.103Z,6.63
2017-10-15T11:33:58.970Z,9.20
2017-10-15T11:35:01.459Z,6.87
2017-10-15T11:36:04.803Z,4.67
2017-10-15T11:37:07.294Z,4.90
2017-10-15T11:38:10.106Z,11.53
2017-10-15T11:39:13.377Z,7.20
2017-10-15T11:40:17.010Z,3.87
2017-10-15T11:41:19.548Z,10.37
2017-10-15T11:42:22.802Z,8.10
2017-10-15T11:43:25.760Z,5.70
2017-10-15T11:44:28.311Z,9.43
2017-10-15T11:45:30.885Z,8.80
2017-10-15T11:46:33.459Z,9.53
2017-10-15T11:47:37.962Z,6.23
2017-10-15T11:48:41.263Z,6.20
2017-10-15T11:49:43.874Z,9.73
2017-10-15T11:50:47.340Z,8.57
2017-10-15T11:51:49.877Z,9.53
2017-10-15T11:52:52.393Z,4.30
2017-10-15T11:53:55.650Z,5.77
2017-10-15T11:54:58.273Z,6.00
2017-10-15T11:56:02.131Z,3.60
2017-10-15T11:57:04.939Z,6.03
2017-10-15T11:58:07.468Z,8.53
2017-10-15T11:59:10.820Z,7.10
2017-10-15T12:00:13.341Z,7.47
2017-10-15T12:01:16.782Z,5.93
2017-10-15T12:02:19.304Z,9.43
2017-10-15T12:03:22.833Z,7.00
2017-10-15T12:04:25.368Z,6.80
2017-10-15T12:05:28.132Z,8.73
2017-10-15T12:06:30.625Z,5.53
2017-10-15T12:07:35.970Z,4.17
2017-10-15T12:08:38.504Z,4.30
2017-10-15T12:09:45.566Z,8.07
2017-10-15T12:10:48.139Z,5.30
2017-10-15T12:11:50.847Z,6.50
2017-10-15T12:12:53.480Z,5.30
2017-10-15T12:13:56.456Z,4.63
2017-10-15T12:14:58.973Z,5.93
2017-10-15T12:16:01.488Z,7.70
2017-10-15T12:17:04.001Z,4.33
2017-10-15T12:18:06.546Z,8.70
2017-10-15T12:19:09.096Z,8.27
2017-10-15T12:20:11.697Z,5.57
2017-10-15T12:21:14.223Z,5.10
2017-10-15T12:22:16.924Z,9.10
2017-10-15T12:23:19.448Z,6.03
2017-10-15T12:24:21.944Z,6.13
2017-10-15T12:25:24.439Z,6.70
2017-10-15T12:26:27.053Z,7.93
2017-10-15T12:27:29.722Z,10.87
2017-10-15T12:28:32.392Z,5.97
2017-10-15T12:29:35.058Z,7.07
2017-10-15T12:30:37.733Z,7.53
2017-10-15T12:31:40.236Z,5.40
2017-10-15T12:32:43.107Z,6.30
2017-10-15T12:33:45.603Z,10.53
2017-10-15T12:34:49.033Z,7.93
2017-10-15T12:35:51.677Z,11.10
2017-10-15T12:36:54.336Z,7.20
2017-10-15T12:37:57.672Z,6.17
2017-10-15T12:39:00.292Z,6.93
2017-10-15T12:40:03.616Z,6.50
2017-10-15T12:41:06.119Z,9.47
2017-10-15T12:42:08.776Z,4.43
2017-10-15T12:43:11.432Z,6.30
2017-10-15T12:44:15.097Z,8.37
2017-10-15T12:45:17.613Z,6.03
2017-10-15T12:46:20.233Z,7.70
2017-10-15T12:47:22.744Z,5.90
2017-10-15T12:48:25.236Z,5.77
2017-10-15T12:49:28.834Z,8.93
2017-10-15T12:50:32.233Z,9.07
2017-10-15T12:51:34.795Z,11.17
2017-10-15T12:52:37.274Z,6.30
2017-10-15T12:53:39.788Z,9.03
2017-10-15T12:54:42.402Z,7.60
2017-10-15T12:55:45.943Z,6.30
2017-10-15T12:56:48.479Z,8.43
2017-10-15T12:57:51.226Z,6.50
2017-10-15T12:58:53.723Z,6.60
2017-10-15T13:00:02.408Z,6.43
2017-10-15T13:01:04.902Z,11.47
2017-10-15T13:02:13.781Z,9.50
2017-10-15T13:03:16.318Z,5.23
2017-10-15T13:04:25.846Z,5.17
2017-10-15T13:05:29.901Z,8.93
2017-10-15T13:06:34.461Z,6.03
2017-10-15T13:07:36.991Z,5.50
2017-10-15T13:08:39.581Z,8.90
2017-10-15T13:09:42.080Z,6.40
2017-10-15T13:10:45.512Z,8.63
2017-10-15T13:11:48.152Z,9.33
2017-10-15T13:12:51.434Z,7.93
2017-10-15T13:13:53.937Z,10.30
2017-10-15T13:14:56.443Z,7.70
2017-10-15T13:15:59.742Z,6.23
2017-10-15T13:17:02.331Z,7.47
2017-10-15T13:18:05.182Z,6.40
2017-10-15T13:19:07.719Z,7.20
2017-10-15T13:20:15.033Z,8.33
2017-10-15T13:21:17.542Z,9.27
2017-10-15T13:22:20.111Z,12.23
2017-10-15T13:23:22.675Z,5.50
2017-10-15T13:24:25.524Z,6.03
2017-10-15T13:25:28.174Z,20.90
2017-10-15T13:26:30.710Z,5.63
2017-10-15T13:27:33.249Z,12.47
2017-10-15T13:28:35.784Z,7.93
2017-10-15T13:29:38.294Z,7.43
2017-10-15T13:30:40.805Z,9.50
2017-10-15T13:31:43.288Z,8.83
2017-10-15T13:32:45.940Z,12.63
2017-10-15T13:33:49.388Z,9.03
2017-10-15T13:34:52.134Z,6.23
2017-10-15T13:35:55.039Z,9.63
2017-10-15T13:36:58.427Z,6.93
2017-10-15T13:38:01.106Z,7.70
2017-10-15T13:39:04.668Z,5.57
2017-10-15T13:40:10.317Z,7.70
2017-10-15T13:41:13.162Z,5.47
2017-10-15T13:42:15.720Z,8.50
2017-10-15T13:43:18.623Z,12.43
2017-10-15T13:44:21.153Z,7.77
2017-10-15T13:45:23.660Z,6.33
2017-10-15T13:46:26.239Z,10.80
2017-10-15T13:47:29.067Z,9.40
2017-10-15T13:48:31.609Z,10.50
2017-10-15T13:49:34.179Z,8.67
2017-10-15T13:50:36.698Z,5.70
2017-10-15T13:51:39.543Z,7.03